Aeroporto :
LOGIN :

Iscrizione | Disclaimer

   EN    FR    IT 

 










Sommario :    VFR   VFR Marginale   IFR   IFR Intensivo   IFR Molto Intensivo
Visibilità : 
Base nubi : 
>= 8 km
>= 3000ft
5 / 8 km
1000 / 3000 ft
1500m / 5 km
500 / 1000 ft
800 / 1500m
200 / 500 ft
< 800m
< 200 ft
Simboli :   Temporali  Nebbia  Neve Forte  Precipitazioni Forti  Vento > 20 kt
SIGMETs :   Varie  Temporali  Ghiacco  Turbolenza  Onda orograficha  Ceneri Vulcaniche






- Altitudine del aeroporto : 81 ft
- Codice IATA : SCS


EGPM - Scatsta

ULTIMO METAR :
  • 270020Z AUTO 25017KT 9999 NCD 09/07 Q1032

METARs OBSOLETI :
  • 262350Z AUTO 24019KT 9999 SCT008/// 10/08 Q1032
  • 262320Z AUTO 24018KT 9999 FEW009/// 09/08 Q1032
  • 262250Z AUTO 24017KT 9999 FEW014/// 10/08 Q1032
  • 262220Z AUTO 24019KT 9999 FEW010/// 10/08 Q1031
  • 262150Z AUTO 24017KT 9999 SCT012/// 10/08 Q1032

Previsioni scadute.



MetMap, La meteo Aeronautica in un colpo d'occhio ! - Copyright ORBIFLY Dicembre 2007 - Disclaimer

ORBIFLY MET'MAP TEAM :

Programmazione e sviluppo : Alexandra Zaïnal
Concezione : Baudouin d'Aumeries
Aiuto per la programmazione : Marc-Olivier Méhu
Supporto tecnico e logistico : Manuel Goepfert
Aiuto per la traduzione : Arnaldo La Scala

Contatto : metmap@orbifly.com




FONTI E CREDITI :

   NOAA